Terminal Aerodrome Forecast
Issued by NWS

Home | Current Version | Previous Version | Text Only | Print | Product List | Glossary On
Versions: 1 2 3 4 5 6 7 8 9 10 11 12 13 14 15 16 17 18 19 20
000
FTAK31 PAJN 200525
TAFASI
TAF
PASI 200525Z 2006/2106 17008KT P6SM -SHRA SCT015 BKN025 OVC040
      TEMPO 2006/2009 4SM -SHRA BR FEW008 BKN015 OVC025
     FM200900 21010KT 6SM -SHRA SCT015 BKN025 OVC050
     FM201200 20008KT P6SM -SHRA SCT030 BKN050
     FM210300 18012KT P6SM VCSH OVC050=

USA.gov is the U.S. government's official web portal to all federal, state and local government web resources and services.